Terminal Aerodrome Forecast
Issued by NWS

Home | Current Version | Previous Version | Text Only | Print | Product List | Glossary On
Versions: 1 2 3 4 5 6 7 8 9 10 11 12 13 14 15 16
000
FTUS41 KPBZ 101128
TAFZZV
TAF
KZZV 101128Z 1012/1112 25007KT P6SM SCT015 BKN040
     FM101500 26007KT P6SM BKN100
     FM110400 18003KT P6SM VCSH OVC025
     FM110600 17003KT 2SM -SN OVC020=

USA.gov is the U.S. government's official web portal to all federal, state and local government web resources and services.